Terminal Aerodrome Forecast
Issued by NWS

Home | Current Version | Previous Version | Text Only | Print | Product List | Glossary On
Versions: 1 2 3 4 5 6 7 8 9 10 11 12 13
000
FTUS42 KGSP 052320
TAFAND
TAF
KAND 052320Z 0600/0624 14007KT P6SM FEW250
     FM060600 06003KT P6SM FEW250
     FM061600 08007G12KT P6SM FEW250=

USA.gov is the U.S. government's official web portal to all federal, state and local government web resources and services.